createdAt,value
2023-02-13T00:00:48.915Z,3.97
2023-02-13T00:02:52.532Z,3.93
2023-02-13T00:04:55.609Z,3.92
2023-02-13T00:06:58.756Z,3.92
2023-02-13T00:09:02.736Z,3.92
2023-02-13T00:11:07.611Z,3.86
2023-02-13T00:13:10.671Z,3.82
2023-02-13T00:15:13.734Z,3.80
2023-02-13T00:17:16.796Z,3.75
2023-02-13T00:19:19.884Z,3.75
2023-02-13T00:21:22.973Z,3.72
2023-02-13T00:23:26.233Z,3.70
2023-02-13T00:25:29.643Z,3.67
2023-02-13T00:27:34.246Z,3.69
2023-02-13T00:29:38.185Z,3.57
2023-02-13T00:31:41.395Z,3.53
2023-02-13T00:33:44.938Z,3.53
2023-02-13T00:35:48.028Z,3.53
2023-02-13T00:37:51.063Z,3.57
2023-02-13T00:39:54.519Z,3.55
2023-02-13T00:41:57.609Z,3.59
2023-02-13T00:44:02.063Z,3.63
2023-02-13T00:46:07.411Z,3.68
2023-02-13T00:48:10.611Z,3.72
2023-02-13T00:50:13.731Z,3.78
2023-02-13T00:52:16.903Z,3.79
2023-02-13T00:54:27.617Z,3.82
2023-02-13T00:56:30.681Z,3.83
2023-02-13T00:58:34.135Z,3.85
2023-02-13T01:00:38.693Z,3.88
2023-02-13T01:02:41.889Z,3.84
2023-02-13T01:04:44.982Z,3.88
2023-02-13T01:06:48.035Z,3.87
2023-02-13T01:08:51.124Z,3.88
2023-02-13T01:10:54.253Z,3.90
2023-02-13T01:12:57.603Z,3.92
2023-02-13T01:15:00.707Z,3.91
2023-02-13T01:17:05.275Z,3.88
2023-02-13T01:19:08.321Z,3.88
2023-02-13T01:21:23.278Z,3.91
2023-02-13T01:23:31.482Z,3.90
2023-02-13T01:25:34.699Z,3.91
2023-02-13T01:27:38.388Z,3.86
2023-02-13T01:29:41.476Z,3.79
2023-02-13T01:31:44.665Z,3.76
2023-02-13T01:33:49.094Z,3.76
2023-02-13T01:35:52.633Z,3.73
2023-02-13T01:37:55.743Z,3.69
2023-02-13T01:40:00.157Z,3.67
2023-02-13T01:42:03.301Z,3.64
2023-02-13T01:44:40.123Z,3.65
2023-02-13T01:46:44.311Z,3.64
2023-02-13T01:48:49.550Z,3.63
2023-02-13T01:50:54.248Z,3.63
2023-02-13T01:53:03.337Z,3.60
2023-02-13T01:55:07.821Z,3.60
2023-02-13T01:57:15.160Z,3.56
2023-02-13T01:59:20.158Z,3.56
2023-02-13T02:01:23.722Z,3.54
2023-02-13T02:03:29.432Z,3.52
2023-02-13T02:05:38.642Z,3.48
2023-02-13T02:07:42.847Z,3.46
2023-02-13T02:09:46.418Z,3.45
2023-02-13T02:11:53.771Z,3.44
2023-02-13T02:13:57.447Z,3.47
2023-02-13T02:16:08.694Z,3.45
2023-02-13T02:18:16.409Z,3.44
2023-02-13T02:20:27.790Z,3.43
2023-02-13T02:23:00.589Z,3.38
2023-02-13T02:25:25.775Z,3.34
2023-02-13T02:27:47.127Z,3.30
2023-02-13T02:30:21.994Z,3.25
2023-02-13T02:32:50.330Z,3.23
2023-02-13T02:34:58.459Z,3.18
2023-02-13T02:37:11.428Z,3.15
2023-02-13T02:39:23.685Z,3.12
2023-02-13T02:41:43.139Z,3.10
2023-02-13T02:43:55.550Z,3.06
2023-02-13T02:46:03.911Z,3.05
2023-02-13T02:48:28.999Z,3.06
2023-02-13T02:50:36.285Z,3.02
2023-02-13T02:52:49.428Z,3.00
2023-02-13T02:55:07.748Z,3.01
2023-02-13T02:57:22.954Z,2.93
2023-02-13T02:59:50.567Z,2.88
2023-02-13T03:02:12.497Z,2.86
2023-02-13T03:04:42.432Z,2.84
2023-02-13T03:06:47.847Z,2.81
2023-02-13T03:09:11.955Z,2.78
2023-02-13T03:11:32.933Z,2.78
2023-02-13T03:13:42.358Z,2.77
2023-02-13T03:16:00.365Z,2.73
2023-02-13T03:18:29.567Z,2.71
2023-02-13T03:20:59.038Z,2.70
2023-02-13T03:23:10.042Z,2.68
2023-02-13T03:25:19.128Z,2.67
2023-02-13T03:27:58.344Z,2.66
2023-02-13T03:30:11.753Z,2.65
2023-02-13T03:32:22.483Z,2.65
2023-02-13T03:34:46.648Z,2.62
2023-02-13T03:37:11.422Z,2.62
2023-02-13T03:39:19.552Z,2.61
2023-02-13T03:41:24.890Z,2.58
2023-02-13T03:43:28.567Z,2.60
2023-02-13T03:45:51.444Z,2.60
2023-02-13T03:47:56.625Z,2.60
2023-02-13T03:50:08.024Z,2.59
2023-02-13T03:52:16.747Z,2.57
2023-02-13T03:54:41.794Z,2.55
2023-02-13T03:57:02.891Z,2.54
2023-02-13T03:59:17.628Z,2.54
2023-02-13T04:01:24.367Z,2.58
2023-02-13T04:03:29.739Z,2.55
2023-02-13T04:05:34.504Z,2.52
2023-02-13T04:07:39.630Z,2.52
2023-02-13T04:09:44.196Z,2.51
2023-02-13T04:11:53.830Z,2.49
2023-02-13T04:13:59.046Z,2.47
2023-02-13T04:16:07.698Z,2.46
2023-02-13T04:18:13.675Z,2.45
2023-02-13T04:20:16.719Z,2.42
2023-02-13T04:22:20.422Z,2.39
2023-02-13T04:24:24.764Z,2.37
2023-02-13T04:26:32.606Z,2.35
2023-02-13T04:28:35.838Z,2.33
2023-02-13T04:30:39.475Z,2.31
2023-02-13T04:32:42.586Z,2.29
2023-02-13T04:34:45.679Z,2.26
2023-02-13T04:36:48.879Z,2.27
2023-02-13T04:38:52.030Z,2.24
2023-02-13T04:40:56.787Z,2.22
2023-02-13T04:43:00.020Z,2.22
2023-02-13T04:45:03.181Z,2.23
2023-02-13T04:47:06.256Z,2.21
2023-02-13T04:49:09.414Z,2.19
2023-02-13T04:51:12.476Z,2.19
2023-02-13T04:53:15.507Z,2.19
2023-02-13T04:55:18.594Z,2.20
2023-02-13T04:57:22.974Z,2.18
2023-02-13T04:59:26.087Z,2.11
2023-02-13T05:01:29.243Z,2.07
2023-02-13T05:03:32.372Z,2.04
2023-02-13T05:05:36.132Z,2.01
2023-02-13T05:07:39.296Z,1.98
2023-02-13T05:09:42.363Z,1.97
2023-02-13T05:11:45.414Z,1.99
2023-02-13T05:13:49.884Z,1.97
2023-02-13T05:15:53.288Z,1.98
2023-02-13T05:17:56.405Z,1.97
2023-02-13T05:19:59.929Z,1.94
2023-02-13T05:22:20.429Z,1.94
2023-02-13T05:24:23.564Z,1.99
2023-02-13T05:26:26.592Z,1.96
2023-02-13T05:28:47.322Z,1.92
2023-02-13T05:30:51.928Z,1.91
2023-02-13T05:32:55.694Z,1.94
2023-02-13T05:34:58.768Z,1.92
2023-02-13T05:37:01.834Z,1.90
2023-02-13T05:39:05.375Z,1.90
2023-02-13T05:41:08.556Z,1.87
2023-02-13T05:43:11.732Z,1.89
2023-02-13T05:45:16.137Z,1.89
2023-02-13T05:47:20.536Z,1.87
2023-02-13T05:49:23.975Z,1.87
2023-02-13T05:51:27.100Z,1.83
2023-02-13T05:53:30.753Z,1.84
2023-02-13T05:55:33.986Z,1.86
2023-02-13T05:57:37.043Z,1.85
2023-02-13T05:59:40.197Z,1.81
2023-02-13T06:01:43.408Z,1.81
2023-02-13T06:03:48.213Z,1.80
2023-02-13T06:05:51.435Z,1.79
2023-02-13T06:07:54.488Z,1.79
2023-02-13T06:09:59.537Z,1.76
2023-02-13T06:12:02.561Z,1.72
2023-02-13T06:14:05.639Z,1.70
2023-02-13T06:16:09.190Z,1.71
2023-02-13T06:18:12.655Z,1.68
2023-02-13T06:20:17.259Z,1.68
2023-02-13T06:22:20.340Z,1.66
2023-02-13T06:24:23.406Z,1.64
2023-02-13T06:26:26.440Z,1.64
2023-02-13T06:28:29.624Z,1.65
2023-02-13T06:30:32.910Z,1.67
2023-02-13T06:32:35.999Z,1.68
2023-02-13T06:34:39.078Z,1.70
2023-02-13T06:36:43.495Z,1.72
2023-02-13T06:38:46.620Z,1.73
2023-02-13T06:40:50.607Z,1.73
2023-02-13T06:42:53.685Z,1.73
2023-02-13T06:44:56.774Z,1.70
2023-02-13T06:47:00.037Z,1.73
2023-02-13T06:49:03.255Z,1.76
2023-02-13T06:51:06.914Z,1.79
2023-02-13T06:53:11.301Z,1.79
2023-02-13T06:55:14.474Z,1.84
2023-02-13T06:57:17.681Z,1.94
2023-02-13T06:59:20.754Z,2.03
2023-02-13T07:01:23.907Z,2.07
2023-02-13T07:03:27.089Z,2.16
2023-02-13T07:05:30.191Z,2.28
2023-02-13T07:07:34.392Z,2.38
2023-02-13T07:09:39.223Z,2.51
2023-02-13T07:11:42.228Z,2.62
2023-02-13T07:13:45.296Z,2.72
2023-02-13T07:15:48.427Z,2.79
2023-02-13T07:17:56.920Z,2.89
2023-02-13T07:20:00.122Z,3.03
2023-02-13T07:22:03.215Z,3.19
2023-02-13T07:24:08.156Z,3.36
2023-02-13T07:26:12.816Z,3.53
2023-02-13T07:28:15.966Z,3.65
2023-02-13T07:30:19.442Z,3.79
2023-02-13T07:32:22.530Z,3.95
2023-02-13T07:34:25.641Z,4.14
2023-02-13T07:36:28.952Z,4.23
2023-02-13T07:38:32.143Z,4.33
2023-02-13T07:40:35.228Z,4.47
2023-02-13T07:42:39.828Z,4.64
2023-02-13T07:44:42.916Z,4.76
2023-02-13T07:46:46.123Z,4.90
2023-02-13T07:48:49.582Z,5.05
2023-02-13T07:50:52.650Z,5.21
2023-02-13T07:52:56.195Z,5.36
2023-02-13T07:54:59.282Z,5.48
2023-02-13T07:57:02.385Z,5.58
2023-02-13T07:59:07.905Z,5.67
2023-02-13T08:01:12.719Z,5.76
2023-02-13T08:03:15.936Z,5.79
2023-02-13T08:05:19.432Z,5.87
2023-02-13T08:07:22.572Z,5.93
2023-02-13T08:09:43.342Z,5.93
2023-02-13T08:11:55.155Z,5.95
2023-02-13T08:13:58.295Z,6.08
2023-02-13T08:16:03.994Z,6.13
2023-02-13T08:18:07.375Z,6.16
2023-02-13T08:20:11.322Z,6.24
2023-02-13T08:22:14.495Z,6.31
2023-02-13T08:24:20.597Z,6.36
2023-02-13T08:26:23.705Z,6.47
2023-02-13T08:28:26.857Z,6.57
2023-02-13T08:30:30.208Z,6.58
2023-02-13T08:32:44.826Z,6.72
2023-02-13T08:34:51.784Z,6.91
2023-02-13T08:36:54.917Z,6.94
2023-02-13T08:38:58.092Z,6.95
2023-02-13T08:41:01.222Z,7.01
2023-02-13T08:43:05.828Z,7.08
2023-02-13T08:45:11.735Z,7.23
2023-02-13T08:47:15.134Z,7.26
2023-02-13T08:49:19.795Z,7.30
2023-02-13T08:51:23.049Z,7.30
2023-02-13T08:53:26.238Z,7.43
2023-02-13T08:55:31.497Z,7.46
2023-02-13T08:57:34.679Z,7.52
2023-02-13T08:59:37.848Z,7.55
2023-02-13T09:01:41.088Z,7.65
2023-02-13T09:03:44.204Z,7.69
2023-02-13T09:05:48.834Z,7.78
2023-02-13T09:07:52.167Z,7.76
2023-02-13T09:09:55.345Z,7.86
2023-02-13T09:11:58.464Z,7.96
2023-02-13T09:14:01.582Z,8.05
2023-02-13T09:16:05.935Z,8.01
2023-02-13T09:18:09.206Z,8.02
2023-02-13T09:20:14.017Z,8.02
2023-02-13T09:22:18.525Z,8.03
2023-02-13T09:24:21.786Z,8.26
2023-02-13T09:26:24.823Z,8.36
2023-02-13T09:28:28.250Z,8.51
2023-02-13T09:30:32.279Z,8.52
2023-02-13T09:32:35.551Z,8.56
2023-02-13T09:34:38.764Z,8.66
2023-02-13T09:36:41.893Z,8.73
2023-02-13T09:38:46.493Z,8.81
2023-02-13T09:40:51.589Z,8.89
2023-02-13T09:42:55.214Z,8.98
2023-02-13T09:45:00.977Z,9.02
2023-02-13T09:47:06.994Z,9.05
2023-02-13T09:49:13.788Z,9.13
2023-02-13T09:51:18.774Z,9.29
2023-02-13T09:53:24.114Z,9.47
2023-02-13T09:55:31.470Z,9.65
2023-02-13T09:57:35.941Z,9.79
2023-02-13T09:59:47.440Z,9.94
2023-02-13T10:01:51.895Z,10.05
2023-02-13T10:04:17.004Z,10.18
2023-02-13T10:06:25.566Z,10.21
2023-02-13T10:08:36.238Z,10.32
2023-02-13T10:10:49.688Z,10.35
2023-02-13T10:13:14.680Z,10.48
2023-02-13T10:15:23.351Z,10.60
2023-02-13T10:17:31.785Z,10.72
2023-02-13T10:19:37.748Z,10.79
2023-02-13T10:21:43.894Z,10.84
2023-02-13T10:23:49.464Z,10.85
2023-02-13T10:25:59.471Z,10.84
2023-02-13T10:28:08.647Z,10.83
2023-02-13T10:30:20.199Z,10.67
2023-02-13T10:32:28.419Z,10.58
2023-02-13T10:34:35.533Z,10.63
2023-02-13T10:36:42.267Z,10.68
2023-02-13T10:38:47.089Z,10.75
2023-02-13T10:41:06.513Z,10.84
2023-02-13T10:43:10.669Z,10.89
2023-02-13T10:45:34.364Z,11.00
2023-02-13T10:47:55.400Z,11.08
2023-02-13T10:50:08.029Z,11.13
2023-02-13T10:52:18.453Z,11.19
2023-02-13T10:54:32.728Z,11.31
2023-02-13T10:56:40.046Z,11.44
2023-02-13T10:58:52.478Z,11.53
2023-02-13T11:00:57.907Z,11.64
2023-02-13T11:03:01.321Z,11.69
2023-02-13T11:05:15.632Z,11.64
2023-02-13T11:07:21.160Z,11.61
2023-02-13T11:09:25.255Z,11.63
2023-02-13T11:11:33.708Z,11.67
2023-02-13T11:13:38.206Z,11.67
2023-02-13T11:15:41.395Z,11.59
2023-02-13T11:17:46.637Z,11.60
2023-02-13T11:19:51.968Z,11.57
2023-02-13T11:21:57.138Z,11.49
2023-02-13T11:24:00.247Z,11.59
2023-02-13T11:26:07.665Z,11.56
2023-02-13T11:28:16.423Z,11.56
2023-02-13T11:30:33.008Z,11.53
2023-02-13T11:32:37.513Z,11.60
2023-02-13T11:34:41.032Z,11.67
2023-02-13T11:36:44.228Z,11.70
2023-02-13T11:38:47.710Z,11.70
2023-02-13T11:40:53.382Z,11.72
2023-02-13T11:42:56.543Z,11.75
2023-02-13T11:45:01.381Z,11.83
2023-02-13T11:47:04.775Z,11.83
2023-02-13T11:49:17.311Z,11.80
2023-02-13T11:51:20.458Z,11.85
2023-02-13T11:53:25.592Z,11.85
2023-02-13T11:55:32.392Z,11.87
2023-02-13T11:57:37.383Z,11.89
2023-02-13T11:59:43.119Z,11.92
2023-02-13T12:01:49.374Z,11.97
2023-02-13T12:04:02.682Z,11.95
2023-02-13T12:06:14.094Z,11.99
2023-02-13T12:08:17.346Z,11.98
2023-02-13T12:10:23.591Z,12.01
2023-02-13T12:12:31.582Z,12.04
2023-02-13T12:14:39.300Z,12.11
2023-02-13T12:16:44.912Z,12.08
2023-02-13T12:18:51.552Z,12.13
2023-02-13T12:20:59.268Z,12.15
2023-02-13T12:23:07.023Z,12.11
2023-02-13T12:25:24.851Z,12.13
2023-02-13T12:27:34.087Z,12.13
2023-02-13T12:29:56.961Z,12.09
2023-02-13T12:32:06.280Z,12.12
2023-02-13T12:34:30.651Z,12.16
2023-02-13T12:36:37.652Z,12.15
2023-02-13T12:38:50.628Z,12.20
2023-02-13T12:41:11.471Z,12.26
2023-02-13T12:43:30.639Z,12.29
2023-02-13T12:45:38.574Z,12.30
2023-02-13T12:47:49.584Z,12.28
2023-02-13T12:50:22.194Z,12.27
2023-02-13T12:52:35.381Z,12.33
2023-02-13T12:54:48.592Z,12.38
2023-02-13T12:57:00.981Z,12.40
2023-02-13T12:59:10.408Z,12.42
2023-02-13T13:01:21.294Z,12.43
2023-02-13T13:03:35.060Z,12.42
2023-02-13T13:06:11.837Z,12.41
2023-02-13T13:08:25.862Z,12.45
2023-02-13T13:10:41.452Z,12.50
2023-02-13T13:12:52.572Z,12.54
2023-02-13T13:15:00.488Z,12.59
2023-02-13T13:17:10.363Z,12.58
2023-02-13T13:19:21.146Z,12.58
2023-02-13T13:21:31.878Z,12.54
2023-02-13T13:23:39.346Z,12.47
2023-02-13T13:25:50.732Z,12.46
2023-02-13T13:27:56.655Z,12.46
2023-02-13T13:30:01.125Z,12.46
2023-02-13T13:32:07.492Z,12.41
2023-02-13T13:34:16.716Z,12.40
2023-02-13T13:36:25.169Z,12.38
2023-02-13T13:38:39.902Z,12.39
2023-02-13T13:40:47.651Z,12.44
2023-02-13T13:42:54.690Z,12.50
2023-02-13T13:45:10.938Z,12.57
2023-02-13T13:47:24.744Z,12.61
2023-02-13T13:49:41.637Z,12.64
2023-02-13T13:51:44.778Z,12.64
2023-02-13T13:54:24.961Z,12.64
2023-02-13T13:57:12.433Z,12.69
2023-02-13T13:59:18.293Z,12.69
2023-02-13T14:01:31.061Z,12.70
2023-02-13T14:03:37.028Z,12.73
2023-02-13T14:05:59.272Z,12.77
2023-02-13T14:08:04.159Z,12.76
2023-02-13T14:10:47.424Z,12.79
2023-02-13T14:13:02.535Z,12.84
2023-02-13T14:15:06.114Z,12.87
2023-02-13T14:17:14.804Z,12.88
2023-02-13T14:19:30.280Z,12.88
2023-02-13T14:21:33.452Z,12.90
2023-02-13T14:23:53.133Z,12.91
2023-02-13T14:26:20.508Z,12.92
2023-02-13T14:28:26.309Z,12.91
2023-02-13T14:30:34.619Z,12.85
2023-02-13T14:32:40.778Z,12.79
2023-02-13T14:34:45.674Z,12.77
2023-02-13T14:37:07.476Z,12.79
2023-02-13T14:39:23.062Z,12.76
2023-02-13T14:41:47.586Z,12.76
2023-02-13T14:43:54.035Z,12.75
2023-02-13T14:45:58.458Z,12.76
2023-02-13T14:48:07.536Z,12.73
2023-02-13T14:50:17.449Z,12.72
2023-02-13T14:52:26.340Z,12.67
2023-02-13T14:54:34.629Z,12.59
2023-02-13T14:56:39.209Z,12.50
2023-02-13T14:58:48.698Z,12.45
2023-02-13T15:00:56.230Z,12.40
2023-02-13T15:03:03.730Z,12.33
2023-02-13T15:05:11.619Z,12.25
2023-02-13T15:07:17.940Z,12.18
2023-02-13T15:09:27.375Z,12.14
2023-02-13T15:11:38.925Z,12.12
2023-02-13T15:13:42.727Z,12.07
2023-02-13T15:15:46.842Z,12.00
2023-02-13T15:17:51.862Z,11.98
2023-02-13T15:19:57.893Z,11.96
2023-02-13T15:22:03.245Z,11.92
2023-02-13T15:24:06.680Z,11.83
2023-02-13T15:26:10.156Z,11.76
2023-02-13T15:28:20.875Z,11.60
2023-02-13T15:30:25.802Z,11.61
2023-02-13T15:32:34.356Z,11.58
2023-02-13T15:34:40.852Z,11.51
2023-02-13T15:36:43.899Z,11.43
2023-02-13T15:38:47.116Z,11.38
2023-02-13T15:40:52.034Z,11.30
2023-02-13T15:42:56.100Z,11.26
2023-02-13T15:44:59.561Z,11.18
2023-02-13T15:47:06.408Z,11.07
2023-02-13T15:49:14.355Z,10.94
2023-02-13T15:51:21.750Z,10.85
2023-02-13T15:53:24.950Z,10.80
2023-02-13T15:55:29.646Z,10.71
2023-02-13T15:57:33.083Z,10.64
2023-02-13T15:59:38.475Z,10.57
2023-02-13T16:01:44.334Z,10.47
2023-02-13T16:03:49.629Z,10.33
2023-02-13T16:05:52.841Z,10.22
2023-02-13T16:07:59.279Z,10.14
2023-02-13T16:10:18.769Z,10.05
2023-02-13T16:12:24.166Z,9.98
2023-02-13T16:14:28.232Z,9.88
2023-02-13T16:16:33.223Z,9.78
2023-02-13T16:18:36.545Z,9.72
2023-02-13T16:20:39.748Z,9.63
2023-02-13T16:22:46.392Z,9.46
2023-02-13T16:24:54.213Z,9.25
2023-02-13T16:26:57.603Z,9.11
2023-02-13T16:29:00.804Z,8.99
2023-02-13T16:31:05.019Z,8.91
2023-02-13T16:33:29.401Z,8.80
2023-02-13T16:35:33.661Z,8.68
2023-02-13T16:37:36.843Z,8.57
2023-02-13T16:39:39.915Z,8.53
2023-02-13T16:41:44.492Z,8.51
2023-02-13T16:43:48.437Z,8.42
2023-02-13T16:45:51.879Z,8.32
2023-02-13T16:48:02.454Z,8.24
2023-02-13T16:50:06.111Z,8.21
2023-02-13T16:52:12.660Z,8.17
2023-02-13T16:54:34.692Z,8.09
2023-02-13T16:56:39.418Z,8.07
2023-02-13T16:58:43.951Z,8.03
2023-02-13T17:00:51.248Z,7.94
2023-02-13T17:02:54.460Z,7.89
2023-02-13T17:05:00.015Z,7.87
2023-02-13T17:07:03.043Z,7.82
2023-02-13T17:09:06.114Z,7.80
2023-02-13T17:11:09.821Z,7.82
2023-02-13T17:13:16.639Z,7.78
2023-02-13T17:15:22.782Z,7.76
2023-02-13T17:17:28.043Z,7.73
2023-02-13T17:19:31.117Z,7.69
2023-02-13T17:21:34.417Z,7.64
2023-02-13T17:23:37.655Z,7.60
2023-02-13T17:25:41.278Z,7.57
2023-02-13T17:27:44.507Z,7.52
2023-02-13T17:29:47.774Z,7.48
2023-02-13T17:31:55.423Z,7.46
2023-02-13T17:33:58.544Z,7.39
2023-02-13T17:36:01.595Z,7.34
2023-02-13T17:38:06.307Z,7.31
2023-02-13T17:40:10.654Z,7.26
2023-02-13T17:42:20.803Z,7.21
2023-02-13T17:44:23.997Z,7.16
2023-02-13T17:46:27.407Z,7.13
2023-02-13T17:48:31.853Z,7.03
2023-02-13T17:50:36.116Z,6.90
2023-02-13T17:52:40.010Z,6.73
2023-02-13T17:54:43.990Z,6.71
2023-02-13T17:56:48.120Z,6.64
2023-02-13T17:58:51.557Z,6.55
2023-02-13T18:00:54.933Z,6.49
2023-02-13T18:02:59.679Z,6.48
2023-02-13T18:05:04.333Z,6.44
2023-02-13T18:07:07.888Z,6.45
2023-02-13T18:09:10.998Z,6.39
2023-02-13T18:11:14.055Z,6.35
2023-02-13T18:13:17.248Z,6.34
2023-02-13T18:15:21.053Z,6.33
2023-02-13T18:17:24.461Z,6.30
2023-02-13T18:19:28.436Z,6.28
2023-02-13T18:21:33.126Z,6.28
2023-02-13T18:23:36.442Z,6.25
2023-02-13T18:25:39.544Z,6.21
2023-02-13T18:27:42.742Z,6.21
2023-02-13T18:29:46.098Z,6.18
2023-02-13T18:31:51.789Z,6.11
2023-02-13T18:33:54.978Z,6.08
2023-02-13T18:36:02.350Z,6.01
2023-02-13T18:38:06.857Z,5.96
2023-02-13T18:40:10.774Z,5.92
2023-02-13T18:42:14.121Z,5.86
2023-02-13T18:44:27.156Z,5.79
2023-02-13T18:46:31.706Z,5.74
2023-02-13T18:48:34.823Z,5.69
2023-02-13T18:50:40.799Z,5.59
2023-02-13T18:52:43.946Z,5.51
2023-02-13T18:54:48.516Z,5.47
2023-02-13T18:56:51.770Z,5.39
2023-02-13T18:58:54.944Z,5.32
2023-02-13T19:00:58.547Z,5.24
2023-02-13T19:03:01.884Z,5.23
2023-02-13T19:05:06.443Z,5.21
2023-02-13T19:07:10.878Z,5.21
2023-02-13T19:09:13.990Z,5.11
2023-02-13T19:11:23.276Z,5.07
2023-02-13T19:13:26.404Z,5.04
2023-02-13T19:15:29.578Z,5.02
2023-02-13T19:17:32.786Z,4.94
2023-02-13T19:19:35.984Z,4.79
2023-02-13T19:21:40.557Z,4.76
2023-02-13T19:23:46.546Z,4.74
2023-02-13T19:25:49.625Z,4.68
2023-02-13T19:27:54.097Z,4.62
2023-02-13T19:29:58.004Z,4.57
2023-02-13T19:32:01.580Z,4.50
2023-02-13T19:34:06.873Z,4.43
2023-02-13T19:36:12.693Z,4.37
2023-02-13T19:38:15.875Z,4.31
2023-02-13T19:40:19.191Z,4.28
2023-02-13T19:42:22.386Z,4.24
2023-02-13T19:44:26.852Z,4.29
2023-02-13T19:46:31.660Z,4.29
2023-02-13T19:48:35.699Z,4.24
2023-02-13T19:50:39.061Z,4.17
2023-02-13T19:52:42.183Z,4.11
2023-02-13T19:54:45.223Z,4.10
2023-02-13T19:56:48.618Z,4.11
2023-02-13T19:58:51.774Z,4.08
2023-02-13T20:00:57.530Z,4.03
2023-02-13T20:03:03.623Z,3.99
2023-02-13T20:05:08.750Z,3.95
2023-02-13T20:07:11.965Z,3.88
2023-02-13T20:09:15.680Z,3.87
2023-02-13T20:11:20.374Z,3.91
2023-02-13T20:13:23.832Z,3.89
2023-02-13T20:15:27.610Z,3.84
2023-02-13T20:17:32.233Z,3.77
2023-02-13T20:19:38.524Z,3.80
2023-02-13T20:21:42.443Z,3.74
2023-02-13T20:23:49.605Z,3.74
2023-02-13T20:25:52.733Z,3.73
2023-02-13T20:27:55.924Z,3.74
2023-02-13T20:30:06.618Z,3.75
2023-02-13T20:32:10.919Z,3.70
2023-02-13T20:34:15.533Z,3.68
2023-02-13T20:36:20.555Z,3.61
2023-02-13T20:38:23.572Z,3.55
2023-02-13T20:40:27.120Z,3.55
2023-02-13T20:42:30.220Z,3.50
2023-02-13T20:44:33.390Z,3.48
2023-02-13T20:46:38.323Z,3.47
2023-02-13T20:48:42.009Z,3.48
2023-02-13T20:50:46.546Z,3.51
2023-02-13T20:52:49.686Z,3.53
2023-02-13T20:54:53.693Z,3.48
2023-02-13T20:56:56.836Z,3.47
2023-02-13T20:59:02.543Z,3.48
2023-02-13T21:01:12.535Z,3.49
2023-02-13T21:03:17.045Z,3.46
2023-02-13T21:05:20.223Z,3.44
2023-02-13T21:07:24.892Z,3.44
2023-02-13T21:09:28.300Z,3.47
2023-02-13T21:11:34.065Z,3.52
2023-02-13T21:13:39.218Z,3.55
2023-02-13T21:15:44.777Z,3.46
2023-02-13T21:17:47.845Z,3.47
2023-02-13T21:19:51.054Z,3.43
2023-02-13T21:21:54.178Z,3.41
2023-02-13T21:24:00.201Z,3.38
2023-02-13T21:26:04.112Z,3.38
2023-02-13T21:28:07.455Z,3.33
2023-02-13T21:30:11.717Z,3.31
2023-02-13T21:32:15.249Z,3.33
2023-02-13T21:34:19.283Z,3.32
2023-02-13T21:36:22.446Z,3.26
2023-02-13T21:38:25.761Z,3.20
2023-02-13T21:40:30.240Z,3.25
2023-02-13T21:42:33.359Z,3.24
2023-02-13T21:44:36.610Z,3.25
2023-02-13T21:46:39.811Z,3.29
2023-02-13T21:48:43.688Z,3.25
2023-02-13T21:50:46.817Z,3.19
2023-02-13T21:52:49.884Z,3.19
2023-02-13T21:54:53.071Z,3.16
2023-02-13T21:56:57.576Z,3.14
2023-02-13T21:59:00.977Z,3.06
2023-02-13T22:01:20.416Z,3.04
2023-02-13T22:03:27.154Z,3.02
2023-02-13T22:05:30.247Z,3.03
2023-02-13T22:07:53.407Z,3.04
2023-02-13T22:09:56.517Z,2.98
2023-02-13T22:12:01.035Z,2.98
2023-02-13T22:14:05.658Z,2.96
2023-02-13T22:16:10.106Z,2.95
2023-02-13T22:18:13.234Z,2.95
2023-02-13T22:20:16.540Z,2.90
2023-02-13T22:22:20.112Z,2.90
2023-02-13T22:24:23.341Z,2.93
2023-02-13T22:26:28.229Z,2.91
2023-02-13T22:28:32.978Z,2.92
2023-02-13T22:30:37.744Z,2.87
2023-02-13T22:32:41.056Z,2.82
2023-02-13T22:34:44.286Z,2.85
2023-02-13T22:36:47.346Z,2.79
2023-02-13T22:38:51.480Z,2.77
2023-02-13T22:40:54.610Z,2.77
2023-02-13T22:42:57.707Z,2.75
2023-02-13T22:45:02.161Z,2.68
2023-02-13T22:47:07.292Z,2.68
2023-02-13T22:49:10.467Z,2.69
2023-02-13T22:51:15.856Z,2.71
2023-02-13T22:53:18.972Z,2.76
2023-02-13T22:55:22.042Z,2.79
2023-02-13T22:57:25.283Z,2.78
2023-02-13T22:59:28.461Z,2.71
2023-02-13T23:01:32.884Z,2.75
2023-02-13T23:03:36.058Z,2.73
2023-02-13T23:05:40.723Z,2.69
2023-02-13T23:07:43.985Z,2.72
2023-02-13T23:09:47.468Z,2.65
2023-02-13T23:12:07.938Z,2.59
2023-02-13T23:14:11.412Z,2.58
2023-02-13T23:16:15.245Z,2.62
2023-02-13T23:18:19.002Z,2.62
2023-02-13T23:20:22.903Z,2.65
2023-02-13T23:22:26.040Z,2.69
2023-02-13T23:24:30.241Z,2.69
2023-02-13T23:26:33.242Z,2.70
2023-02-13T23:28:36.894Z,2.75
2023-02-13T23:30:40.938Z,2.77
2023-02-13T23:32:44.249Z,2.80
2023-02-13T23:34:48.692Z,2.79
2023-02-13T23:36:51.922Z,2.77
2023-02-13T23:38:55.041Z,2.75
2023-02-13T23:40:58.448Z,2.69
2023-02-13T23:43:01.752Z,2.66
2023-02-13T23:45:04.979Z,2.68
2023-02-13T23:47:08.076Z,2.62
2023-02-13T23:49:11.256Z,2.54
2023-02-13T23:51:15.938Z,2.55
2023-02-13T23:53:18.976Z,2.59
2023-02-13T23:55:22.146Z,2.62
2023-02-13T23:57:25.555Z,2.63
2023-02-13T23:59:28.799Z,2.60
